createdAt,value
2022-11-22T00:00:10.463Z,90.75
2022-11-22T00:01:09.263Z,90.54
2022-11-22T00:02:09.904Z,90.02
2022-11-22T00:03:09.235Z,90.23
2022-11-22T00:04:09.256Z,90.54
2022-11-22T00:05:09.265Z,90.33
2022-11-22T00:06:09.244Z,90.50
2022-11-22T00:07:09.317Z,89.81
2022-11-22T00:08:09.225Z,90.23
2022-11-22T00:09:09.220Z,90.64
2022-11-22T00:10:10.502Z,90.85
2022-11-22T00:11:09.223Z,89.71
2022-11-22T00:12:09.193Z,90.29
2022-11-22T00:13:09.222Z,90.08
2022-11-22T00:14:09.172Z,90.02
2022-11-22T00:15:09.178Z,89.98
2022-11-22T00:16:09.189Z,90.39
2022-11-22T00:17:09.159Z,90.19
2022-11-22T00:18:09.154Z,90.29
2022-11-22T00:19:09.150Z,90.50
2022-11-22T00:20:09.128Z,89.56
2022-11-22T00:21:09.132Z,88.73
2022-11-22T00:22:09.124Z,89.98
2022-11-22T00:23:09.140Z,90.19
2022-11-22T00:24:10.177Z,90.56
2022-11-22T00:25:09.103Z,90.19
2022-11-22T00:26:09.093Z,90.29
2022-11-22T00:27:09.076Z,89.98
2022-11-22T00:28:09.862Z,89.98
2022-11-22T00:29:09.066Z,90.81
2022-11-22T00:30:09.098Z,90.50
2022-11-22T00:31:09.148Z,90.70
2022-11-22T00:32:09.052Z,90.70
2022-11-22T00:33:09.048Z,90.81
2022-11-22T00:34:09.078Z,90.60
2022-11-22T00:35:09.021Z,90.81
2022-11-22T00:36:09.038Z,91.12
2022-11-22T00:37:09.719Z,92.16
2022-11-22T00:38:09.025Z,91.22
2022-11-22T00:39:09.568Z,90.91
2022-11-22T00:40:08.994Z,90.81
2022-11-22T00:41:08.995Z,91.64
2022-11-22T00:42:08.997Z,92.26
2022-11-22T00:43:08.981Z,91.64
2022-11-22T00:44:08.983Z,92.47
2022-11-22T00:45:08.951Z,91.95
2022-11-22T00:46:08.971Z,92.36
2022-11-22T00:47:09.700Z,92.26
2022-11-22T00:48:08.940Z,92.68
2022-11-22T00:49:08.946Z,92.88
2022-11-22T00:50:08.950Z,92.47
2022-11-22T00:51:08.916Z,92.88
2022-11-22T00:52:08.967Z,93.08
2022-11-22T00:53:08.908Z,93.19
2022-11-22T00:54:08.915Z,93.40
2022-11-22T00:55:09.545Z,93.29
2022-11-22T00:56:08.930Z,93.40
2022-11-22T00:57:08.927Z,93.60
2022-11-22T00:58:08.891Z,92.88
2022-11-22T00:59:08.884Z,92.98
2022-11-22T01:00:08.864Z,93.40
2022-11-22T01:01:09.016Z,94.06
2022-11-22T01:02:08.858Z,92.57
2022-11-22T01:03:08.846Z,93.60
2022-11-22T01:04:08.888Z,92.98
2022-11-22T01:05:08.839Z,92.88
2022-11-22T01:06:08.835Z,94.17
2022-11-22T01:07:08.900Z,92.82
2022-11-22T01:08:08.807Z,92.93
2022-11-22T01:09:08.820Z,93.44
2022-11-22T01:10:08.810Z,93.54
2022-11-22T01:11:08.808Z,93.65
2022-11-22T01:12:09.499Z,94.68
2022-11-22T01:13:08.779Z,94.79
2022-11-22T01:14:08.766Z,95.83
2022-11-22T01:15:08.751Z,95.41
2022-11-22T01:16:08.776Z,95.51
2022-11-22T01:17:08.737Z,95.10
2022-11-22T01:18:08.746Z,95.20
2022-11-22T01:19:08.739Z,95.83
2022-11-22T01:20:08.728Z,94.27
2022-11-22T01:21:08.740Z,94.89
2022-11-22T01:22:08.747Z,95.93
2022-11-22T01:23:08.740Z,95.72
2022-11-22T01:24:09.567Z,94.48
2022-11-22T01:25:08.709Z,94.68
2022-11-22T01:26:08.729Z,95.00
2022-11-22T01:27:09.745Z,94.48
2022-11-22T01:28:08.676Z,95.36
2022-11-22T01:29:08.659Z,95.72
2022-11-22T01:30:08.680Z,95.41
2022-11-22T01:31:08.667Z,94.79
2022-11-22T01:32:08.676Z,95.51
2022-11-22T01:33:08.714Z,95.72
2022-11-22T01:34:08.722Z,96.03
2022-11-22T01:35:10.568Z,95.93
2022-11-22T01:36:08.634Z,96.66
2022-11-22T01:37:08.606Z,96.45
2022-11-22T01:38:08.620Z,95.83
2022-11-22T01:39:08.619Z,95.41
2022-11-22T01:40:08.595Z,95.10
2022-11-22T01:41:09.272Z,95.20
2022-11-22T01:42:09.175Z,95.31
2022-11-22T01:43:08.595Z,95.20
2022-11-22T01:44:08.578Z,95.93
2022-11-22T01:45:08.604Z,94.89
2022-11-22T01:46:08.543Z,95.99
2022-11-22T01:47:08.551Z,96.45
2022-11-22T01:48:08.597Z,95.62
2022-11-22T01:49:08.621Z,95.83
2022-11-22T01:50:08.528Z,96.03
2022-11-22T01:51:08.532Z,95.62
2022-11-22T01:52:09.774Z,95.62
2022-11-22T01:53:08.518Z,96.24
2022-11-22T01:54:08.496Z,95.93
2022-11-22T01:55:08.494Z,95.72
2022-11-22T01:56:08.526Z,95.93
2022-11-22T01:57:10.581Z,95.68
2022-11-22T01:58:08.471Z,96.30
2022-11-22T01:59:08.818Z,96.03
2022-11-22T02:00:08.447Z,95.83
2022-11-22T02:01:08.543Z,96.30
2022-11-22T02:02:08.453Z,94.68
2022-11-22T02:03:08.452Z,95.78
2022-11-22T02:04:08.439Z,95.99
2022-11-22T02:05:08.442Z,96.09
2022-11-22T02:06:09.329Z,96.09
2022-11-22T02:07:08.459Z,95.68
2022-11-22T02:08:08.407Z,95.68
2022-11-22T02:09:08.399Z,96.20
2022-11-22T02:10:08.395Z,96.82
2022-11-22T02:11:08.404Z,96.61
2022-11-22T02:12:08.541Z,96.88
2022-11-22T02:13:08.402Z,96.51
2022-11-22T02:14:08.356Z,96.41
2022-11-22T02:15:08.380Z,95.99
2022-11-22T02:16:08.354Z,96.09
2022-11-22T02:17:10.232Z,95.99
2022-11-22T02:18:08.330Z,96.41
2022-11-22T02:19:08.448Z,96.67
2022-11-22T02:20:08.333Z,96.67
2022-11-22T02:21:08.322Z,96.30
2022-11-22T02:22:08.323Z,96.78
2022-11-22T02:23:08.978Z,95.89
2022-11-22T02:24:08.309Z,96.36
2022-11-22T02:25:08.313Z,95.74
2022-11-22T02:26:08.284Z,95.89
2022-11-22T02:27:08.283Z,95.84
2022-11-22T02:28:08.280Z,95.37
2022-11-22T02:29:08.271Z,95.89
2022-11-22T02:30:08.291Z,94.81
2022-11-22T02:31:08.298Z,94.70
2022-11-22T02:32:08.249Z,95.12
2022-11-22T02:33:08.261Z,94.95
2022-11-22T02:34:09.278Z,95.01
2022-11-22T02:35:08.314Z,94.95
2022-11-22T02:36:08.256Z,94.33
2022-11-22T02:37:08.348Z,94.91
2022-11-22T02:38:08.204Z,94.33
2022-11-22T02:39:08.204Z,94.18
2022-11-22T02:40:08.204Z,94.33
2022-11-22T02:41:08.198Z,93.91
2022-11-22T02:42:08.207Z,93.50
2022-11-22T02:43:08.400Z,93.87
2022-11-22T02:44:08.166Z,93.87
2022-11-22T02:45:08.181Z,93.04
2022-11-22T02:46:08.153Z,93.35
2022-11-22T02:47:08.181Z,93.87
2022-11-22T02:48:08.863Z,93.77
2022-11-22T02:49:08.165Z,93.77
2022-11-22T02:50:08.155Z,93.98
2022-11-22T02:51:08.138Z,92.74
2022-11-22T02:52:08.147Z,93.19
2022-11-22T02:53:08.376Z,93.00
2022-11-22T02:54:08.121Z,93.77
2022-11-22T02:55:08.116Z,93.87
2022-11-22T02:56:08.098Z,93.56
2022-11-22T02:57:08.432Z,93.87
2022-11-22T02:58:08.106Z,93.77
2022-11-22T02:59:08.082Z,94.18
2022-11-22T03:00:09.431Z,93.56
2022-11-22T03:01:08.179Z,93.46
2022-11-22T03:02:08.060Z,93.15
2022-11-22T03:03:08.081Z,94.08
2022-11-22T03:04:08.083Z,93.35
2022-11-22T03:05:15.540Z,93.87
2022-11-22T03:06:08.034Z,93.35
2022-11-22T03:07:08.067Z,93.04
2022-11-22T03:08:08.020Z,92.74
2022-11-22T03:09:08.038Z,92.28
2022-11-22T03:10:29.032Z,93.15
2022-11-22T03:11:07.991Z,93.04
2022-11-22T03:12:08.007Z,93.15
2022-11-22T03:13:07.978Z,93.04
2022-11-22T03:14:07.983Z,92.74
2022-11-22T03:15:07.996Z,91.91
2022-11-22T03:16:09.104Z,92.94
2022-11-22T03:17:07.968Z,92.43
2022-11-22T03:18:07.977Z,92.43
2022-11-22T03:19:07.984Z,92.84
2022-11-22T03:20:07.961Z,92.18
2022-11-22T03:21:08.894Z,91.76
2022-11-22T03:22:07.957Z,92.43
2022-11-22T03:23:07.915Z,91.76
2022-11-22T03:24:07.938Z,91.60
2022-11-22T03:25:07.992Z,92.18
2022-11-22T03:26:07.915Z,92.18
2022-11-22T03:27:07.954Z,92.07
2022-11-22T03:28:07.948Z,91.60
2022-11-22T03:29:07.887Z,92.43
2022-11-22T03:30:07.956Z,92.32
2022-11-22T03:31:07.889Z,93.04
2022-11-22T03:32:08.011Z,93.77
2022-11-22T03:33:07.872Z,92.32
2022-11-22T03:34:07.891Z,92.94
2022-11-22T03:35:07.950Z,92.59
2022-11-22T03:36:07.916Z,92.74
2022-11-22T03:37:07.879Z,92.74
2022-11-22T03:38:07.827Z,93.15
2022-11-22T03:39:07.840Z,93.56
2022-11-22T03:40:08.258Z,93.56
2022-11-22T03:41:07.812Z,94.08
2022-11-22T03:42:07.831Z,92.84
2022-11-22T03:43:07.789Z,92.84
2022-11-22T03:44:07.802Z,94.08
2022-11-22T03:45:07.782Z,93.98
2022-11-22T03:46:07.772Z,93.56
2022-11-22T03:47:07.768Z,92.84
2022-11-22T03:48:07.755Z,93.56
2022-11-22T03:49:07.767Z,93.77
2022-11-22T03:50:07.772Z,93.56
2022-11-22T03:51:09.032Z,94.81
2022-11-22T03:52:07.742Z,94.29
2022-11-22T03:53:07.750Z,94.81
2022-11-22T03:54:07.725Z,93.98
2022-11-22T03:55:07.726Z,94.18
2022-11-22T03:56:10.103Z,93.77
2022-11-22T03:57:07.702Z,94.81
2022-11-22T03:58:07.731Z,93.98
2022-11-22T03:59:07.711Z,93.87
2022-11-22T04:00:07.686Z,94.54
2022-11-22T04:01:11.967Z,94.43
2022-11-22T04:02:08.777Z,95.16
2022-11-22T04:03:07.656Z,95.74
2022-11-22T04:04:08.741Z,95.32
2022-11-22T04:05:07.644Z,95.43
2022-11-22T04:06:07.651Z,95.12
2022-11-22T04:07:07.722Z,95.74
2022-11-22T04:08:07.667Z,95.53
2022-11-22T04:09:07.740Z,95.32
2022-11-22T04:10:07.652Z,95.74
2022-11-22T04:11:07.655Z,95.47
2022-11-22T04:12:07.631Z,95.84
2022-11-22T04:13:07.605Z,95.16
2022-11-22T04:14:07.582Z,94.29
2022-11-22T04:15:07.645Z,94.91
2022-11-22T04:16:07.573Z,95.95
2022-11-22T04:17:08.086Z,95.12
2022-11-22T04:18:07.593Z,95.74
2022-11-22T04:19:07.546Z,95.99
2022-11-22T04:20:07.558Z,94.81
2022-11-22T04:21:07.535Z,95.53
2022-11-22T04:22:07.610Z,94.91
2022-11-22T04:23:07.578Z,95.01
2022-11-22T04:24:07.540Z,94.91
2022-11-22T04:25:07.499Z,94.81
2022-11-22T04:26:07.534Z,95.74
2022-11-22T04:27:07.523Z,95.84
2022-11-22T04:28:07.499Z,95.53
2022-11-22T04:29:10.082Z,95.53
2022-11-22T04:30:07.493Z,95.53
2022-11-22T04:31:07.461Z,94.91
2022-11-22T04:32:07.476Z,94.91
2022-11-22T04:33:08.291Z,94.81
2022-11-22T04:34:08.105Z,94.56
2022-11-22T04:35:07.446Z,95.22
2022-11-22T04:36:13.012Z,94.29
2022-11-22T04:37:08.886Z,95.49
2022-11-22T04:38:08.071Z,94.91
2022-11-22T04:39:07.431Z,95.22
2022-11-22T04:40:07.416Z,95.95
2022-11-22T04:41:07.409Z,96.26
2022-11-22T04:42:07.419Z,94.97
2022-11-22T04:43:07.383Z,94.91
2022-11-22T04:44:07.404Z,95.32
2022-11-22T04:45:07.405Z,95.95
2022-11-22T04:46:07.372Z,94.60
2022-11-22T04:47:07.369Z,95.49
2022-11-22T04:48:07.362Z,95.07
2022-11-22T04:49:07.370Z,94.87
2022-11-22T04:50:09.234Z,94.76
2022-11-22T04:51:07.325Z,94.76
2022-11-22T04:52:07.340Z,94.87
2022-11-22T04:53:07.313Z,95.49
2022-11-22T04:54:07.326Z,94.97
2022-11-22T04:55:07.352Z,95.07
2022-11-22T04:56:07.304Z,94.56
2022-11-22T04:57:07.327Z,94.97
2022-11-22T04:58:07.357Z,94.35
2022-11-22T04:59:09.470Z,95.18
2022-11-22T05:00:07.291Z,94.87
2022-11-22T05:01:07.316Z,94.56
2022-11-22T05:02:08.321Z,95.70
2022-11-22T05:03:07.270Z,95.80
2022-11-22T05:04:07.273Z,95.03
2022-11-22T05:05:07.247Z,94.66
2022-11-22T05:06:07.255Z,94.66
2022-11-22T05:07:07.301Z,94.72
2022-11-22T05:08:07.244Z,95.14
2022-11-22T05:09:08.674Z,95.14
2022-11-22T05:10:07.219Z,95.65
2022-11-22T05:11:07.823Z,94.62
2022-11-22T05:12:07.217Z,94.20
2022-11-22T05:13:07.192Z,94.20
2022-11-22T05:14:07.182Z,95.03
2022-11-22T05:15:07.179Z,94.72
2022-11-22T05:16:07.187Z,94.82
2022-11-22T05:17:10.326Z,95.14
2022-11-22T05:18:08.188Z,94.82
2022-11-22T05:19:07.153Z,94.20
2022-11-22T05:20:07.159Z,94.41
2022-11-22T05:21:07.445Z,94.82
2022-11-22T05:22:07.138Z,94.82
2022-11-22T05:23:07.166Z,95.03
2022-11-22T05:24:07.130Z,95.65
2022-11-22T05:25:07.400Z,94.47
2022-11-22T05:26:07.120Z,94.68
2022-11-22T05:27:07.120Z,94.06
2022-11-22T05:28:07.095Z,94.51
2022-11-22T05:29:07.118Z,94.62
2022-11-22T05:30:07.103Z,94.78
2022-11-22T05:31:07.413Z,94.31
2022-11-22T05:32:07.080Z,94.16
2022-11-22T05:33:07.061Z,94.57
2022-11-22T05:34:07.319Z,94.82
2022-11-22T05:35:07.050Z,94.82
2022-11-22T05:36:07.042Z,94.16
2022-11-22T05:37:07.040Z,94.20
2022-11-22T05:38:07.051Z,94.26
2022-11-22T05:39:07.010Z,94.26
2022-11-22T05:40:07.026Z,93.79
2022-11-22T05:41:06.990Z,93.23
2022-11-22T05:42:06.997Z,93.43
2022-11-22T05:43:07.041Z,93.43
2022-11-22T05:44:06.998Z,93.54
2022-11-22T05:45:07.242Z,93.64
2022-11-22T05:46:06.970Z,93.74
2022-11-22T05:47:14.064Z,94.06
2022-11-22T05:48:06.970Z,93.74
2022-11-22T05:49:06.941Z,94.26
2022-11-22T05:50:06.956Z,94.57
2022-11-22T05:51:06.931Z,94.68
2022-11-22T05:52:06.928Z,94.78
2022-11-22T05:53:07.445Z,94.47
2022-11-22T05:54:06.915Z,94.57
2022-11-22T05:55:06.912Z,94.68
2022-11-22T05:56:06.930Z,94.89
2022-11-22T05:57:06.910Z,95.81
2022-11-22T05:58:06.892Z,95.81
2022-11-22T05:59:06.914Z,95.50
2022-11-22T06:00:06.888Z,95.50
2022-11-22T06:01:07.499Z,94.73
2022-11-22T06:02:06.948Z,94.78
2022-11-22T06:03:06.873Z,94.68
2022-11-22T06:04:06.851Z,94.89
2022-11-22T06:05:06.841Z,95.29
2022-11-22T06:06:07.324Z,94.89
2022-11-22T06:07:10.004Z,95.19
2022-11-22T06:08:06.872Z,95.29
2022-11-22T06:09:06.829Z,94.68
2022-11-22T06:10:06.804Z,95.25
2022-11-22T06:11:06.813Z,95.15
2022-11-22T06:12:06.801Z,94.84
2022-11-22T06:13:07.270Z,94.98
2022-11-22T06:14:07.047Z,94.68
2022-11-22T06:15:27.815Z,94.63
2022-11-22T06:16:06.775Z,94.73
2022-11-22T06:17:06.770Z,94.63
2022-11-22T06:18:06.777Z,94.94
2022-11-22T06:19:06.747Z,94.63
2022-11-22T06:20:06.998Z,94.63
2022-11-22T06:21:06.752Z,94.63
2022-11-22T06:22:06.730Z,94.53
2022-11-22T06:23:06.734Z,94.94
2022-11-22T06:24:06.738Z,94.38
2022-11-22T06:25:06.717Z,94.63
2022-11-22T06:26:06.722Z,94.12
2022-11-22T06:27:06.701Z,94.69
2022-11-22T06:28:06.679Z,94.94
2022-11-22T06:29:07.234Z,94.63
2022-11-22T06:30:06.690Z,95.36
2022-11-22T06:31:06.700Z,95.36
2022-11-22T06:32:06.667Z,95.21
2022-11-22T06:33:06.671Z,95.31
2022-11-22T06:34:08.930Z,95.31
2022-11-22T06:35:06.655Z,95.94
2022-11-22T06:36:06.645Z,96.24
2022-11-22T06:37:06.628Z,95.83
2022-11-22T06:38:06.630Z,95.00
2022-11-22T06:39:06.635Z,95.62
2022-11-22T06:40:06.603Z,95.52
2022-11-22T06:41:06.616Z,95.52
2022-11-22T06:42:06.588Z,95.52
2022-11-22T06:43:06.610Z,94.59
2022-11-22T06:44:07.383Z,94.59
2022-11-22T06:45:06.584Z,95.42
2022-11-22T06:46:06.568Z,94.69
2022-11-22T06:47:06.601Z,94.48
2022-11-22T06:48:06.571Z,94.79
2022-11-22T06:49:06.552Z,94.69
2022-11-22T06:50:06.740Z,94.59
2022-11-22T06:51:06.544Z,95.06
2022-11-22T06:52:06.521Z,94.79
2022-11-22T06:53:06.546Z,93.93
2022-11-22T06:54:06.522Z,93.45
2022-11-22T06:55:08.238Z,94.48
2022-11-22T06:56:06.509Z,93.62
2022-11-22T06:57:07.767Z,92.72
2022-11-22T06:58:06.496Z,92.42
2022-11-22T06:59:06.505Z,92.93
2022-11-22T07:00:06.490Z,92.21
2022-11-22T07:01:06.565Z,93.35
2022-11-22T07:02:07.088Z,94.48
2022-11-22T07:03:06.496Z,94.18
2022-11-22T07:04:06.450Z,94.07
2022-11-22T07:05:31.667Z,94.59
2022-11-22T07:06:07.436Z,94.48
2022-11-22T07:07:07.931Z,94.59
2022-11-22T07:08:13.289Z,94.54
2022-11-22T07:09:07.427Z,94.65
2022-11-22T07:10:06.405Z,94.44
2022-11-22T07:11:06.417Z,94.23
2022-11-22T07:12:06.401Z,94.54
2022-11-22T07:13:06.395Z,94.54
2022-11-22T07:14:08.919Z,94.75
2022-11-22T07:15:06.380Z,94.03
2022-11-22T07:16:07.076Z,94.54
2022-11-22T07:17:06.380Z,94.85
2022-11-22T07:18:06.362Z,94.85
2022-11-22T07:19:06.410Z,95.37
2022-11-22T07:20:06.503Z,95.37
2022-11-22T07:21:12.159Z,95.48
2022-11-22T07:22:07.321Z,95.53
2022-11-22T07:23:06.372Z,95.37
2022-11-22T07:24:06.323Z,95.48
2022-11-22T07:25:06.314Z,95.27
2022-11-22T07:26:06.299Z,95.17
2022-11-22T07:27:06.307Z,95.37
2022-11-22T07:28:06.281Z,95.27
2022-11-22T07:29:06.296Z,95.27
2022-11-22T07:30:06.278Z,95.06
2022-11-22T07:31:06.279Z,95.17
2022-11-22T07:32:06.271Z,95.17
2022-11-22T07:33:06.262Z,94.96
2022-11-22T07:34:06.245Z,95.37
2022-11-22T07:35:06.288Z,95.27
2022-11-22T07:36:06.243Z,95.68
2022-11-22T07:37:09.245Z,95.64
2022-11-22T07:38:06.227Z,95.64
2022-11-22T07:39:06.220Z,94.81
2022-11-22T07:40:06.216Z,95.02
2022-11-22T07:41:06.216Z,94.60
2022-11-22T07:42:06.646Z,94.50
2022-11-22T07:43:06.219Z,94.19
2022-11-22T07:44:06.232Z,94.60
2022-11-22T07:45:06.184Z,94.87
2022-11-22T07:46:06.177Z,94.04
2022-11-22T07:47:06.201Z,94.35
2022-11-22T07:48:06.152Z,94.04
2022-11-22T07:49:06.161Z,94.35
2022-11-22T07:50:06.165Z,94.25
2022-11-22T07:51:06.175Z,94.25
2022-11-22T07:52:06.121Z,94.00
2022-11-22T07:53:06.232Z,93.79
2022-11-22T07:54:06.109Z,93.22
2022-11-22T07:55:10.999Z,93.53
2022-11-22T07:56:07.112Z,93.73
2022-11-22T07:57:06.804Z,93.49
2022-11-22T07:58:06.086Z,93.63
2022-11-22T07:59:06.078Z,93.28
2022-11-22T08:00:06.104Z,94.21
2022-11-22T08:01:06.205Z,93.18
2022-11-22T08:02:07.306Z,93.18
2022-11-22T08:03:06.163Z,92.76
2022-11-22T08:04:06.044Z,92.55
2022-11-22T08:05:06.039Z,93.18
2022-11-22T08:06:06.033Z,92.55
2022-11-22T08:07:06.235Z,92.55
2022-11-22T08:08:06.706Z,92.46
2022-11-22T08:09:06.030Z,92.46
2022-11-22T08:10:05.999Z,92.97
2022-11-22T08:11:06.866Z,93.69
2022-11-22T08:12:05.989Z,93.28
2022-11-22T08:13:05.988Z,93.18
2022-11-22T08:14:06.000Z,93.18
2022-11-22T08:15:05.976Z,93.38
2022-11-22T08:16:06.298Z,93.38
2022-11-22T08:17:05.981Z,93.59
2022-11-22T08:18:05.943Z,94.52
2022-11-22T08:19:05.973Z,94.31
2022-11-22T08:20:05.947Z,93.69
2022-11-22T08:21:05.945Z,93.28
2022-11-22T08:22:05.922Z,93.18
2022-11-22T08:23:06.052Z,93.18
2022-11-22T08:24:05.930Z,93.38
2022-11-22T08:25:05.918Z,93.90
2022-11-22T08:26:05.922Z,93.18
2022-11-22T08:27:05.899Z,93.28
2022-11-22T08:28:05.883Z,92.97
2022-11-22T08:29:13.707Z,93.18
2022-11-22T08:30:06.875Z,93.38
2022-11-22T08:31:05.905Z,93.69
2022-11-22T08:32:05.865Z,93.54
2022-11-22T08:33:05.863Z,94.42
2022-11-22T08:34:05.849Z,93.34
2022-11-22T08:35:05.847Z,93.34
2022-11-22T08:36:05.830Z,93.54
2022-11-22T08:37:05.891Z,93.96
2022-11-22T08:38:05.827Z,92.97
2022-11-22T08:39:05.942Z,93.34
2022-11-22T08:40:05.821Z,92.82
2022-11-22T08:41:05.826Z,93.18
2022-11-22T08:42:05.804Z,93.44
2022-11-22T08:43:05.812Z,93.44
2022-11-22T08:44:05.834Z,93.18
2022-11-22T08:45:05.795Z,93.59
2022-11-22T08:46:05.773Z,93.38
2022-11-22T08:47:05.775Z,92.97
2022-11-22T08:48:05.772Z,94.42
2022-11-22T08:49:05.750Z,94.00
2022-11-22T08:50:06.565Z,94.31
2022-11-22T08:51:05.754Z,94.27
2022-11-22T08:52:05.766Z,94.42
2022-11-22T08:53:05.733Z,93.90
2022-11-22T08:54:05.729Z,94.31
2022-11-22T08:55:05.836Z,93.96
2022-11-22T08:56:05.706Z,94.00
2022-11-22T08:57:06.595Z,94.00
2022-11-22T08:58:05.692Z,93.90
2022-11-22T08:59:05.708Z,94.06
2022-11-22T09:00:05.697Z,93.54
2022-11-22T09:01:05.692Z,93.65
2022-11-22T09:02:05.681Z,93.54
2022-11-22T09:03:05.658Z,93.28
2022-11-22T09:04:05.688Z,93.03
2022-11-22T09:05:05.654Z,93.49
2022-11-22T09:08:22.988Z,92.61
2022-11-22T09:10:06.601Z,92.55
2022-11-22T09:11:05.732Z,92.41
2022-11-22T09:12:05.614Z,91.89
2022-11-22T09:13:05.595Z,92.31
2022-11-22T09:14:05.592Z,91.34
2022-11-22T09:15:05.575Z,91.64
2022-11-22T09:16:05.587Z,91.34
2022-11-22T09:17:05.941Z,91.34
2022-11-22T09:18:05.570Z,91.19
2022-11-22T09:19:05.557Z,91.09
2022-11-22T09:20:05.745Z,91.44
2022-11-22T09:21:05.548Z,91.50
2022-11-22T09:22:05.537Z,90.99
2022-11-22T09:23:05.523Z,91.19
2022-11-22T09:24:05.530Z,91.50
2022-11-22T09:25:05.519Z,91.40
2022-11-22T09:26:06.446Z,92.12
2022-11-22T09:27:05.616Z,91.81
2022-11-22T09:28:05.507Z,91.44
2022-11-22T09:29:05.489Z,91.64
2022-11-22T09:30:05.499Z,92.16
2022-11-22T09:31:26.484Z,92.57
2022-11-22T09:32:05.477Z,91.85
2022-11-22T09:33:05.468Z,91.03
2022-11-22T09:34:05.463Z,91.30
2022-11-22T09:35:05.449Z,90.57
2022-11-22T09:36:05.458Z,90.78
2022-11-22T09:37:05.644Z,90.26
2022-11-22T09:38:05.465Z,90.06
2022-11-22T09:39:05.850Z,89.95
2022-11-22T09:40:05.468Z,89.95
2022-11-22T09:41:05.414Z,90.06
2022-11-22T09:42:05.443Z,90.37
2022-11-22T09:43:05.527Z,90.43
2022-11-22T09:44:07.109Z,90.37
2022-11-22T09:45:05.404Z,89.67
2022-11-22T09:46:05.388Z,89.91
2022-11-22T09:47:05.377Z,88.84
2022-11-22T09:48:09.547Z,88.53
2022-11-22T09:49:05.358Z,88.02
2022-11-22T09:50:05.376Z,87.46
2022-11-22T09:51:05.350Z,87.87
2022-11-22T09:52:05.348Z,88.08
2022-11-22T09:53:05.337Z,87.94
2022-11-22T09:54:05.332Z,88.14
2022-11-22T09:55:05.484Z,86.56
2022-11-22T09:56:05.324Z,87.90
2022-11-22T09:57:05.316Z,86.35
2022-11-22T09:58:05.877Z,85.63
2022-11-22T09:59:05.409Z,85.53
2022-11-22T10:00:05.303Z,86.11
2022-11-22T10:01:05.346Z,85.08
2022-11-22T10:02:17.439Z,85.39
2022-11-22T10:03:06.266Z,84.77
2022-11-22T10:04:05.492Z,84.05
2022-11-22T10:05:05.262Z,83.54
2022-11-22T10:06:05.255Z,83.68
2022-11-22T10:07:05.450Z,84.40
2022-11-22T10:08:05.266Z,84.44
2022-11-22T10:09:05.221Z,84.71
2022-11-22T10:10:05.679Z,83.78
2022-11-22T10:11:05.211Z,83.41
2022-11-22T10:12:05.213Z,84.20
2022-11-22T10:13:05.202Z,83.48
2022-11-22T10:14:05.199Z,82.14
2022-11-22T10:15:05.840Z,84.61
2022-11-22T10:16:05.175Z,84.47
2022-11-22T10:17:05.213Z,84.26
2022-11-22T10:18:05.191Z,82.92
2022-11-22T10:19:06.733Z,83.91
2022-11-22T10:20:05.199Z,84.12
2022-11-22T10:21:05.161Z,83.50
2022-11-22T10:22:05.136Z,82.95
2022-11-22T10:23:05.141Z,81.92
2022-11-22T10:24:05.152Z,83.09
2022-11-22T10:25:05.792Z,82.99
2022-11-22T10:26:05.103Z,83.40
2022-11-22T10:27:05.105Z,82.06
2022-11-22T10:28:05.095Z,83.50
2022-11-22T10:29:05.100Z,81.34
2022-11-22T10:30:05.462Z,81.86
2022-11-22T10:31:05.205Z,82.17
2022-11-22T10:32:05.070Z,82.57
2022-11-22T10:33:05.066Z,81.48
2022-11-22T10:34:05.057Z,82.82
2022-11-22T10:35:06.149Z,82.62
2022-11-22T10:36:05.667Z,83.29
2022-11-22T10:37:05.045Z,83.40
2022-11-22T10:38:05.021Z,82.89
2022-11-22T10:39:05.114Z,82.54
2022-11-22T10:40:05.364Z,80.28
2022-11-22T10:41:05.943Z,82.13
2022-11-22T10:42:07.183Z,83.05
2022-11-22T10:43:05.005Z,81.92
2022-11-22T10:44:04.985Z,80.58
2022-11-22T10:45:05.639Z,81.92
2022-11-22T10:46:04.980Z,81.37
2022-11-22T10:47:05.107Z,80.96
2022-11-22T10:48:04.956Z,81.20
2022-11-22T10:49:04.968Z,81.51
2022-11-22T10:50:04.942Z,81.41
2022-11-22T10:51:04.947Z,82.19
2022-11-22T10:52:04.982Z,82.50
2022-11-22T10:53:04.927Z,80.96
2022-11-22T10:54:04.918Z,81.68
2022-11-22T10:55:04.942Z,80.76
2022-11-22T10:56:05.635Z,80.55
2022-11-22T10:57:04.888Z,79.87
2022-11-22T10:58:04.897Z,80.38
2022-11-22T10:59:04.882Z,80.28
2022-11-22T11:00:04.874Z,79.46
2022-11-22T11:01:05.658Z,80.69
2022-11-22T11:02:04.852Z,79.46
2022-11-22T11:03:04.979Z,80.07
2022-11-22T11:04:05.603Z,79.66
2022-11-22T11:05:04.843Z,79.36
2022-11-22T11:06:22.725Z,79.63
2022-11-22T11:07:14.430Z,79.42
2022-11-22T11:08:36.763Z,77.61
2022-11-22T11:10:02.745Z,77.85
2022-11-22T11:10:11.782Z,79.56
2022-11-22T11:11:05.797Z,79.11
2022-11-22T11:12:06.757Z,78.70
2022-11-22T11:13:04.785Z,79.25
2022-11-22T11:14:04.773Z,78.74
2022-11-22T11:15:04.778Z,78.23
2022-11-22T11:16:04.844Z,77.95
2022-11-22T11:17:04.782Z,77.85
2022-11-22T11:18:04.777Z,78.06
2022-11-22T11:19:04.866Z,77.95
2022-11-22T11:20:04.730Z,78.71
2022-11-22T11:21:04.814Z,77.99
2022-11-22T11:22:04.733Z,79.74
2022-11-22T11:23:20.455Z,79.12
2022-11-22T11:24:05.691Z,79.53
2022-11-22T11:25:04.702Z,79.63
2022-11-22T11:26:04.676Z,79.88
2022-11-22T11:27:05.597Z,80.29
2022-11-22T11:28:04.683Z,79.67
2022-11-22T11:29:05.263Z,80.29
2022-11-22T11:30:04.657Z,79.57
2022-11-22T11:31:04.680Z,79.50
2022-11-22T11:32:04.642Z,79.16
2022-11-22T11:33:04.638Z,79.16
2022-11-22T11:34:04.649Z,79.71
2022-11-22T11:35:04.758Z,79.16
2022-11-22T11:36:04.616Z,77.20
2022-11-22T11:37:04.621Z,79.47
2022-11-22T11:38:04.600Z,77.51
2022-11-22T11:39:04.617Z,78.03
2022-11-22T11:40:04.592Z,77.37
2022-11-22T11:41:04.585Z,76.97
2022-11-22T11:42:04.581Z,77.99
2022-11-22T11:43:04.578Z,77.00
2022-11-22T11:44:05.712Z,77.92
2022-11-22T11:45:04.568Z,77.96
2022-11-22T11:46:04.539Z,78.06
2022-11-22T11:47:04.552Z,79.09
2022-11-22T11:48:12.641Z,78.23
2022-11-22T11:49:04.529Z,78.54
2022-11-22T11:50:04.862Z,78.03
2022-11-22T11:51:04.638Z,79.57
2022-11-22T11:52:04.580Z,79.36
2022-11-22T11:53:04.495Z,78.13
2022-11-22T11:54:04.505Z,77.72
2022-11-22T11:55:04.492Z,77.82
2022-11-22T11:56:04.527Z,77.78
2022-11-22T11:57:05.549Z,76.97
2022-11-22T11:58:04.483Z,77.27
2022-11-22T11:59:04.472Z,76.97
2022-11-22T12:00:04.467Z,76.55
2022-11-22T12:01:04.520Z,76.69
2022-11-22T12:02:05.180Z,75.46
2022-11-22T12:03:04.446Z,75.35
2022-11-22T12:04:04.468Z,76.07
2022-11-22T12:05:04.485Z,75.25
2022-11-22T12:06:04.546Z,75.25
2022-11-22T12:07:04.743Z,76.07
2022-11-22T12:08:04.667Z,76.65
2022-11-22T12:09:04.409Z,75.73
2022-11-22T12:10:04.395Z,75.49
2022-11-22T12:11:04.409Z,75.59
2022-11-22T12:12:04.485Z,74.98
2022-11-22T12:13:05.020Z,73.57
2022-11-22T12:14:20.629Z,73.74
2022-11-22T12:15:13.041Z,72.34
2022-11-22T12:16:05.352Z,73.54
2022-11-22T12:17:04.350Z,73.27
2022-11-22T12:18:04.369Z,74.08
2022-11-22T12:19:04.347Z,74.29
2022-11-22T12:20:04.333Z,73.78
2022-11-22T12:21:04.310Z,74.40
2022-11-22T12:22:04.359Z,73.27
2022-11-22T12:23:04.422Z,73.47
2022-11-22T12:24:34.409Z,73.98
2022-11-22T12:25:30.887Z,74.70
2022-11-22T12:26:05.283Z,75.01
2022-11-22T12:27:04.297Z,74.91
2022-11-22T12:28:04.276Z,75.01
2022-11-22T12:29:06.980Z,74.22
2022-11-22T12:30:04.356Z,72.89
2022-11-22T12:31:04.248Z,74.02
2022-11-22T12:32:04.245Z,72.61
2022-11-22T12:33:04.230Z,73.23
2022-11-22T12:34:04.234Z,73.74
2022-11-22T12:35:04.224Z,74.87
2022-11-22T12:36:04.244Z,74.74
2022-11-22T12:37:04.207Z,74.57
2022-11-22T12:38:25.324Z,75.59
2022-11-22T12:39:04.253Z,74.98
2022-11-22T12:40:04.204Z,74.87
2022-11-22T12:41:04.225Z,75.49
2022-11-22T12:42:05.053Z,74.08
2022-11-22T12:43:04.329Z,74.70
2022-11-22T12:44:04.168Z,73.88
2022-11-22T12:45:04.199Z,73.98
2022-11-22T12:46:04.161Z,73.16
2022-11-22T12:47:04.436Z,72.34
2022-11-22T12:48:05.455Z,73.19
2022-11-22T12:49:04.127Z,73.16
2022-11-22T12:50:04.136Z,73.71
2022-11-22T12:51:04.164Z,72.85
2022-11-22T12:52:04.130Z,72.99
2022-11-22T12:53:04.171Z,73.09
2022-11-22T12:54:04.302Z,73.19
2022-11-22T12:55:04.122Z,73.61